Time;durP1;ratioP1;P1;durP2;ratioP2;P2;SDS_P1;SDS_P2;PMS_P1;PMS_P2;Temp;Humidity;BMP_temperature;BMP_pressure;BME280_temperature;BME280_humidity;BME280_pressure;Samples;Min_cycle;Max_cycle;Signal;HPM_P1;HPM_P2
2023/03/10 00:01:23;;;;;;;24.03;13.67;;;3.00;99.90;;;;;;5015389;28;20047;-91
2023/03/10 00:03:51;;;;;;;22.00;12.70;;;3.00;99.90;;;;;;5013523;28;20071;-87
2023/03/10 00:06:20;;;;;;;22.10;11.88;;;3.00;99.90;;;;;;4998348;28;20047;-88
2023/03/10 00:08:47;;;;;;;24.97;13.70;;;3.00;99.90;;;;;;5021810;28;20045;-91
2023/03/10 00:11:14;;;;;;;18.75;11.45;;;3.10;99.90;;;;;;5033698;28;20611;-91
2023/03/10 00:13:41;;;;;;;20.67;11.60;;;3.10;99.90;;;;;;5029139;28;20503;-91
2023/03/10 00:16:20;;;;;;;18.57;11.83;;;3.10;99.90;;;;;;5029419;28;20523;-91
2023/03/10 00:23:31;;;;;;;;;;;;;;;;;;;;;
2023/03/10 00:26:36;;;;;;;22.30;12.53;;;3.10;99.90;;;;;;5028648;28;20044;-91
2023/03/10 00:30:17;;;;;;;23.77;12.55;;;3.10;99.90;;;;;;4932932;28;20041;-89
2023/03/10 00:33:34;;;;;;;;;;;;;;;;;;;;;
2023/03/10 00:37:23;;;;;;;17.88;11.15;;;3.20;99.90;;;;;;5017151;28;20303;-90
2023/03/10 00:44:41;;;;;;;20.53;11.63;;;3.20;99.90;;;;;;5009996;28;20047;-88
2023/03/10 00:47:39;;;;;;;19.27;11.77;;;3.20;99.90;;;;;;5007160;28;20051;-90
2023/03/10 00:50:06;;;;;;;18.20;10.13;;;3.20;99.90;;;;;;5008162;28;20554;-88
2023/03/10 00:52:33;;;;;;;18.10;10.70;;;3.20;99.90;;;;;;5014498;28;20044;-87
2023/03/10 00:54:59;;;;;;;21.33;11.80;;;3.30;99.90;;;;;;5010882;28;20522;-90
2023/03/10 01:01:57;;;;;;;20.02;10.88;;;3.30;99.90;;;;;;5019941;28;20731;-88
2023/03/10 01:05:38;;;;;;;17.30;9.43;;;3.30;99.90;;;;;;5025651;28;20049;-89
2023/03/10 01:08:39;;;;;;;21.17;10.87;;;3.30;99.90;;;;;;5008444;28;20131;-89
2023/03/10 01:11:05;;;;;;;21.60;12.23;;;3.40;99.90;;;;;;5013679;28;20037;-88
2023/03/10 01:13:32;;;;;;;19.60;10.73;;;3.40;99.90;;;;;;4997529;28;20041;-89
2023/03/10 01:15:58;;;;;;;19.40;11.60;;;3.40;99.90;;;;;;5014779;28;20040;-88
2023/03/10 01:18:25;;;;;;;19.85;11.00;;;3.40;99.90;;;;;;5023641;28;20419;-88
2023/03/10 01:20:52;;;;;;;23.45;12.05;;;3.40;99.90;;;;;;5028524;28;20044;-89
2023/03/10 01:23:21;;;;;;;19.25;11.27;;;3.40;99.90;;;;;;5017985;28;20470;-88
2023/03/10 01:25:49;;;;;;;20.67;11.15;;;3.40;99.90;;;;;;5014309;28;20540;-87
2023/03/10 01:28:18;;;;;;;17.53;9.00;;;3.40;99.90;;;;;;5025112;28;20041;-87
2023/03/10 01:30:45;;;;;;;15.40;8.00;;;3.40;99.90;;;;;;5014497;28;20045;-87
2023/03/10 01:33:12;;;;;;;17.17;9.30;;;3.50;99.90;;;;;;5030858;28;20040;-87
2023/03/10 01:35:39;;;;;;;16.08;8.65;;;3.50;99.90;;;;;;5029871;28;20049;-85
2023/03/10 01:38:06;;;;;;;19.13;9.38;;;3.50;99.90;;;;;;5008526;28;20681;-84
2023/03/10 01:40:35;;;;;;;16.98;8.27;;;3.60;99.90;;;;;;5027073;28;20037;-88
2023/03/10 01:43:20;;;;;;;22.83;12.18;;;3.60;99.90;;;;;;5030008;28;20504;-89
2023/03/10 01:45:47;;;;;;;21.60;10.63;;;3.60;99.90;;;;;;4996095;28;20032;-88
2023/03/10 01:48:28;;;;;;;21.00;10.03;;;3.60;99.90;;;;;;5007961;28;20044;-89
2023/03/10 01:51:03;;;;;;;23.88;11.45;;;3.60;99.90;;;;;;5030063;28;20036;-87
2023/03/10 01:53:32;;;;;;;16.60;8.85;;;3.60;99.90;;;;;;5012939;28;20040;-88
2023/03/10 01:56:03;;;;;;;21.40;11.10;;;3.60;99.90;;;;;;5012299;28;20124;-88
2023/03/10 01:58:39;;;;;;;21.77;10.35;;;3.60;99.90;;;;;;4991246;28;20048;-90
2023/03/10 02:01:06;;;;;;;20.60;9.68;;;3.70;99.90;;;;;;5029480;28;20060;-86
2023/03/10 02:03:43;;;;;;;24.50;11.18;;;3.60;99.90;;;;;;5030550;28;20069;-88
2023/03/10 02:06:18;;;;;;;23.93;11.00;;;3.70;99.90;;;;;;5030738;28;20056;-87
2023/03/10 02:08:50;;;;;;;;;;;3.70;99.90;;;;;;5022504;28;20566;-87
2023/03/10 02:11:19;;;;;;;22.80;10.00;;;3.70;99.90;;;;;;5035724;28;20191;-85
2023/03/10 02:13:53;;;;;;;19.17;9.18;;;3.60;99.90;;;;;;4996609;28;20068;-85
2023/03/10 02:16:41;;;;;;;18.67;8.63;;;3.60;99.90;;;;;;5031857;28;20052;-89
2023/03/10 02:19:37;;;;;;;24.98;10.93;;;3.60;99.90;;;;;;5007428;28;20049;-89
2023/03/10 02:22:32;;;;;;;22.10;9.87;;;3.60;99.90;;;;;;5015942;28;21280;-87
2023/03/10 02:25:07;;;;;;;26.50;10.82;;;3.60;99.90;;;;;;5029450;28;20067;-89
2023/03/10 02:27:35;;;;;;;27.23;10.38;;;3.60;99.90;;;;;;5013601;28;20395;-88
2023/03/10 02:30:02;;;;;;;31.92;14.07;;;3.60;99.90;;;;;;5024079;28;20044;-88
2023/03/10 02:32:37;;;;;;;36.10;15.10;;;3.60;99.90;;;;;;5014087;28;20496;-90
2023/03/10 02:35:05;;;;;;;32.03;12.80;;;3.60;99.90;;;;;;5012861;28;20033;-88
2023/03/10 02:37:35;;;;;;;22.42;11.05;;;3.60;99.90;;;;;;5030335;28;20594;-88
2023/03/10 02:40:21;;;;;;;29.38;12.07;;;3.60;99.90;;;;;;5004059;28;20048;-90
2023/03/10 02:42:48;;;;;;;29.02;12.75;;;3.60;99.90;;;;;;5013086;28;20048;-87
2023/03/10 02:45:17;;;;;;;28.70;11.87;;;3.50;99.90;;;;;;5031686;28;20044;-88
2023/03/10 02:47:46;;;;;;;29.90;11.63;;;3.60;99.90;;;;;;5029636;28;20041;-90
2023/03/10 02:50:19;;;;;;;33.20;13.50;;;3.50;99.90;;;;;;5014393;28;20056;-88
2023/03/10 02:52:54;;;;;;;39.20;15.55;;;3.50;99.90;;;;;;5011545;28;20484;-87
2023/03/10 02:55:20;;;;;;;31.83;13.23;;;3.50;99.90;;;;;;5028925;28;20090;-87
2023/03/10 02:57:55;;;;;;;35.92;13.90;;;3.50;99.90;;;;;;5007154;28;20040;-85
2023/03/10 03:00:44;;;;;;;28.00;11.15;;;3.50;99.90;;;;;;5026039;28;20052;-89
2023/03/10 03:03:14;;;;;;;26.10;10.88;;;3.50;99.90;;;;;;5029468;28;20036;-90
2023/03/10 03:05:42;;;;;;;27.13;10.48;;;3.50;99.90;;;;;;5029334;28;20593;-90
2023/03/10 03:08:09;;;;;;;31.00;11.10;;;3.50;99.90;;;;;;5006165;28;20053;-88
2023/03/10 03:10:52;;;;;;;;;;;;;;;;;;;;;
2023/03/10 03:13:59;;;;;;;38.20;14.13;;;3.60;99.90;;;;;;5028984;28;20052;-87
2023/03/10 03:17:27;;;;;;;27.13;10.77;;;3.50;99.90;;;;;;5017873;28;20191;-87
2023/03/10 03:19:59;;;;;;;36.25;13.48;;;3.50;99.90;;;;;;5024113;28;20924;-86
2023/03/10 03:22:26;;;;;;;24.20;9.65;;;3.50;99.90;;;;;;5030867;28;20036;-86
2023/03/10 03:24:52;;;;;;;27.15;10.23;;;3.50;99.90;;;;;;5032992;28;20396;-86
2023/03/10 03:27:19;;;;;;;25.63;9.32;;;3.50;99.90;;;;;;5034766;28;20048;-84
2023/03/10 03:29:45;;;;;;;29.23;11.43;;;3.50;99.90;;;;;;5003851;28;20044;-87
2023/03/10 03:32:12;;;;;;;30.93;11.23;;;3.50;99.90;;;;;;5032385;28;20917;-87
2023/03/10 03:34:38;;;;;;;36.30;12.40;;;3.50;99.90;;;;;;5000916;28;20045;-86
2023/03/10 03:37:06;;;;;;;29.50;11.57;;;3.50;99.90;;;;;;5031381;28;20044;-86
2023/03/10 03:39:36;;;;;;;27.07;10.80;;;3.50;99.90;;;;;;5007929;28;20045;-87
2023/03/10 03:42:06;;;;;;;32.30;10.77;;;3.50;99.90;;;;;;5016099;28;20048;-89
2023/03/10 03:44:42;;;;;;;37.08;12.88;;;3.50;99.90;;;;;;4995973;28;20408;-86
2023/03/10 03:47:09;;;;;;;38.53;13.37;;;3.50;99.90;;;;;;5028742;28;20500;-85
2023/03/10 03:49:37;;;;;;;32.65;12.18;;;3.40;99.90;;;;;;5020569;28;21319;-87
2023/03/10 03:52:06;;;;;;;25.37;9.53;;;3.40;99.90;;;;;;5026603;28;20045;-86
2023/03/10 03:54:33;;;;;;;29.38;10.85;;;3.40;99.90;;;;;;5027398;28;20499;-86
2023/03/10 03:56:59;;;;;;;25.58;10.43;;;3.40;99.90;;;;;;5009840;28;20083;-88
2023/03/10 03:59:26;;;;;;;37.15;12.25;;;3.40;99.90;;;;;;5003263;28;20033;-86
2023/03/10 04:01:54;;;;;;;34.38;10.73;;;3.40;99.90;;;;;;4995670;28;20039;-87
2023/03/10 04:04:21;;;;;;;25.50;9.65;;;3.40;99.90;;;;;;5011545;28;20036;-90
2023/03/10 04:06:47;;;;;;;31.05;11.73;;;3.40;99.90;;;;;;5026486;28;20032;-90
2023/03/10 04:09:21;;;;;;;33.67;11.67;;;3.40;99.90;;;;;;5005476;28;20440;-89
2023/03/10 04:11:50;;;;;;;36.00;11.90;;;3.40;99.90;;;;;;5026111;28;20392;-89
2023/03/10 04:14:17;;;;;;;37.73;11.63;;;3.40;99.90;;;;;;5031220;28;20050;-86
2023/03/10 04:16:55;;;;;;;37.85;11.65;;;3.40;99.90;;;;;;5016802;28;20049;-88
2023/03/10 04:19:22;;;;;;;25.40;9.10;;;3.40;99.90;;;;;;5022189;28;20060;-88
2023/03/10 04:21:52;;;;;;;31.27;9.55;;;3.40;99.90;;;;;;5002166;28;20041;-88
2023/03/10 04:24:19;;;;;;;18.33;8.15;;;3.40;99.90;;;;;;5016527;28;20045;-88
2023/03/10 04:26:45;;;;;;;21.53;7.60;;;3.40;99.90;;;;;;5014560;28;20438;-88
2023/03/10 04:29:12;;;;;;;34.05;11.27;;;3.40;99.90;;;;;;5021234;28;20404;-86
2023/03/10 04:31:40;;;;;;;32.42;11.18;;;3.40;99.90;;;;;;5026486;28;20044;-86
2023/03/10 04:34:09;;;;;;;41.50;11.45;;;3.40;99.90;;;;;;4996770;28;20067;-86
2023/03/10 04:36:36;;;;;;;29.48;10.18;;;3.40;99.90;;;;;;4994819;28;20701;-86
2023/03/10 04:39:04;;;;;;;37.20;11.77;;;3.40;99.90;;;;;;5018884;28;20032;-85
2023/03/10 04:41:31;;;;;;;31.75;11.48;;;3.30;99.90;;;;;;5010723;28;20968;-86
2023/03/10 04:43:58;;;;;;;29.67;9.52;;;3.30;99.90;;;;;;5025346;28;20037;-85
2023/03/10 04:46:24;;;;;;;31.92;10.05;;;3.30;99.90;;;;;;5007996;28;20048;-88
2023/03/10 04:48:52;;;;;;;25.38;8.55;;;3.30;99.90;;;;;;5002374;28;20060;-85
2023/03/10 04:51:19;;;;;;;21.85;7.22;;;3.30;99.90;;;;;;5010086;28;20036;-88
2023/03/10 04:53:49;;;;;;;18.87;6.30;;;3.40;99.90;;;;;;5008935;28;20037;-87
2023/03/10 04:56:16;;;;;;;21.17;7.67;;;3.40;99.90;;;;;;5007222;28;20044;-89
2023/03/10 04:58:43;;;;;;;19.43;7.00;;;3.30;99.90;;;;;;5001206;28;20064;-87
2023/03/10 05:01:12;;;;;;;19.60;6.10;;;3.30;99.90;;;;;;5009217;28;20059;-87
2023/03/10 05:03:42;;;;;;;;;;;3.30;99.90;;;;;;5026188;28;20052;-87
2023/03/10 05:06:16;;;;;;;16.93;5.67;;;3.30;99.90;;;;;;5006938;28;20055;-86
2023/03/10 05:08:48;;;;;;;9.88;3.78;;;3.30;99.90;;;;;;4982422;28;20033;-88
2023/03/10 05:11:17;;;;;;;14.75;4.97;;;3.30;99.90;;;;;;5011234;28;20041;-88
2023/03/10 05:13:44;;;;;;;12.30;4.03;;;3.20;99.90;;;;;;5025965;28;20049;-89
2023/03/10 05:16:21;;;;;;;11.35;3.60;;;3.30;99.90;;;;;;5010570;28;20055;-88
2023/03/10 05:19:00;;;;;;;13.32;4.90;;;3.30;99.90;;;;;;5002679;28;20535;-87
2023/03/10 05:21:29;;;;;;;12.30;4.50;;;3.30;99.90;;;;;;5011844;28;20514;-88
2023/03/10 05:23:57;;;;;;;15.10;4.43;;;3.30;99.90;;;;;;5011558;28;20033;-88
2023/03/10 05:26:26;;;;;;;10.57;3.65;;;3.30;99.90;;;;;;5012194;28;20036;-88
2023/03/10 05:28:53;;;;;;;14.70;4.37;;;3.30;99.90;;;;;;4988015;28;20827;-88
2023/03/10 05:31:31;;;;;;;10.67;3.30;;;3.30;99.90;;;;;;5029956;28;20642;-89
2023/03/10 05:34:03;;;;;;;17.27;4.80;;;3.30;99.90;;;;;;5017512;28;20524;-88
2023/03/10 05:36:30;;;;;;;14.70;4.63;;;3.30;99.90;;;;;;4999528;28;20040;-88
2023/03/10 05:38:56;;;;;;;20.05;5.30;;;3.30;99.90;;;;;;5019499;28;20590;-90
2023/03/10 05:41:23;;;;;;;15.40;4.47;;;3.30;99.90;;;;;;5027027;28;20059;-89
2023/03/10 05:43:54;;;;;;;12.02;3.90;;;3.30;99.90;;;;;;5012302;28;20531;-87
2023/03/10 05:46:21;;;;;;;16.30;5.17;;;3.30;99.90;;;;;;5031180;28;20515;-87
2023/03/10 05:48:53;;;;;;;15.77;4.25;;;3.30;99.90;;;;;;5010250;28;20059;-89
2023/03/10 05:51:20;;;;;;;15.23;4.53;;;3.30;99.90;;;;;;5013791;28;20492;-89
2023/03/10 05:53:47;;;;;;;13.13;3.67;;;3.30;99.90;;;;;;5030387;28;20033;-87
2023/03/10 05:56:19;;;;;;;12.02;3.25;;;3.30;99.90;;;;;;5014921;28;20036;-89
2023/03/10 05:58:52;;;;;;;14.53;3.63;;;3.30;99.90;;;;;;4992533;28;20036;-88
2023/03/10 06:01:35;;;;;;;;;;;;;;;;;;;;;
2023/03/10 06:04:31;;;;;;;10.77;3.40;;;3.30;99.90;;;;;;5030257;28;20053;-89
2023/03/10 06:07:45;;;;;;;17.30;4.78;;;3.20;99.90;;;;;;5027566;28;20407;-87
2023/03/10 06:10:23;;;;;;;16.63;7.27;;;3.20;99.90;;;;;;5009743;28;20044;-85
2023/03/10 06:12:49;;;;;;;14.55;6.25;;;3.20;99.90;;;;;;5029493;28;20049;-87
2023/03/10 06:15:19;;;;;;;14.75;4.97;;;3.20;99.90;;;;;;4998063;28;20496;-88
2023/03/10 06:17:48;;;;;;;14.43;4.57;;;3.20;99.90;;;;;;5025974;28;20068;-90
2023/03/10 06:21:15;;;;;;;11.82;4.32;;;3.20;99.90;;;;;;5026119;28;20053;-88
2023/03/10 06:24:44;;;;;;;;;;;;;;;;;;;;;
2023/03/10 06:28:31;;;;;;;;;;;;;;;;;;;;;
2023/03/10 06:32:35;;;;;;;;;;;;;;;;;;;;;
2023/03/10 06:40:24;;;;;;;17.85;6.57;;;3.10;99.90;;;;;;4968820;28;20054;-91
2023/03/10 06:43:32;;;;;;;16.77;6.63;;;3.10;99.90;;;;;;4961222;28;20477;-90
2023/03/10 06:50:29;;;;;;;16.53;5.93;;;3.10;99.90;;;;;;4961394;28;20464;-86
2023/03/10 06:53:01;;;;;;;14.80;5.43;;;3.10;99.90;;;;;;4971579;28;20415;-88
2023/03/10 06:56:41;;;;;;;18.13;6.47;;;3.10;99.90;;;;;;5021880;28;20515;-86
2023/03/10 06:59:56;;;;;;;16.90;5.90;;;3.10;99.90;;;;;;4987871;28;20060;-86
2023/03/10 07:02:26;;;;;;;13.77;4.97;;;3.10;99.90;;;;;;4991428;28;20076;-87
2023/03/10 07:05:15;;;;;;;;;;;;;;;;;;;;;
2023/03/10 07:08:05;;;;;;;16.35;6.93;;;3.20;99.90;;;;;;5025800;28;20502;-85
2023/03/10 07:10:34;;;;;;;14.13;5.22;;;3.20;99.90;;;;;;5026194;28;20045;-85
2023/03/10 07:13:27;;;;;;;16.90;6.77;;;3.20;99.90;;;;;;5028878;28;20519;-87
2023/03/10 07:16:01;;;;;;;18.98;7.53;;;3.20;99.90;;;;;;5012517;28;20040;-87
2023/03/10 07:18:39;;;;;;;14.65;6.25;;;3.20;99.90;;;;;;5018673;28;20519;-88
2023/03/10 07:21:30;;;;;;;18.08;7.10;;;3.20;99.90;;;;;;5017150;28;20040;-86
2023/03/10 07:24:09;;;;;;;20.07;7.77;;;3.10;99.90;;;;;;5028395;28;20045;-87
2023/03/10 07:26:39;;;;;;;14.73;5.93;;;3.10;99.90;;;;;;5013075;28;20364;-92
2023/03/10 07:29:26;;;;;;;20.00;7.07;;;3.10;99.90;;;;;;5020602;28;20037;-88
2023/03/10 07:32:23;;;;;;;18.67;7.03;;;3.10;99.90;;;;;;5013237;28;20048;-89
2023/03/10 07:39:31;;;;;;;16.27;6.40;;;3.10;99.90;;;;;;5009631;28;20056;-88
2023/03/10 07:42:21;;;;;;;20.63;8.20;;;3.20;99.90;;;;;;5014057;28;20036;-87
2023/03/10 07:49:16;;;;;;;17.92;6.13;;;3.30;99.90;;;;;;5006384;28;20048;-88
2023/03/10 07:52:24;;;;;;;22.40;7.80;;;3.40;99.90;;;;;;4949865;28;20042;-86
2023/03/10 07:55:09;;;;;;;24.75;8.45;;;3.50;99.90;;;;;;5028759;28;20045;-89
2023/03/10 07:58:08;;;;;;;21.02;7.50;;;3.50;99.90;;;;;;5022300;28;20054;-90
2023/03/10 08:04:13;;;;;;;;;;;;;;;;;;;;;
2023/03/10 08:07:24;;;;;;;20.80;7.80;;;3.40;99.90;;;;;;5017619;28;20499;-88
2023/03/10 08:10:40;;;;;;;;;;;;;;;;;;;;;
2023/03/10 08:14:30;;;;;;;19.77;6.72;;;3.60;99.90;;;;;;5007734;28;20492;-90
2023/03/10 08:18:13;;;;;;;22.42;7.00;;;3.60;99.90;;;;;;5030844;28;20413;-93
2023/03/10 08:25:11;;;;;;;16.50;6.32;;;3.60;99.90;;;;;;5036103;28;20052;-92
2023/03/10 08:28:27;;;;;;;17.00;5.65;;;3.60;99.90;;;;;;4997586;28;20041;-91
2023/03/10 08:31:53;;;;;;;16.37;6.10;;;3.60;99.90;;;;;;5018359;28;20048;-91
2023/03/10 08:35:29;;;;;;;16.17;5.60;;;3.50;99.90;;;;;;5033463;28;20052;-89
2023/03/10 08:38:43;;;;;;;14.43;5.45;;;3.60;99.90;;;;;;4976698;28;20065;-91
2023/03/10 08:41:47;;;;;;;;;;;;;;;;;;;;;
2023/03/10 08:44:57;;;;;;;14.35;4.88;;;3.70;99.90;;;;;;5014519;28;20046;-87
2023/03/10 08:48:11;;;;;;;15.35;4.88;;;3.70;99.90;;;;;;5024914;28;20067;-86
2023/03/10 08:50:40;;;;;;;12.52;5.10;;;3.70;99.90;;;;;;5010733;28;20596;-84
2023/03/10 08:53:15;;;;;;;15.30;5.60;;;3.80;99.90;;;;;;5023986;28;20053;-81
2023/03/10 08:55:48;;;;;;;19.02;6.07;;;3.90;99.90;;;;;;5025253;28;20045;-88
2023/03/10 08:58:23;;;;;;;13.90;5.93;;;4.00;99.90;;;;;;5001654;28;20048;-87
2023/03/10 09:00:52;;;;;;;15.32;6.55;;;4.00;99.90;;;;;;5024664;28;20554;-85
2023/03/10 09:03:22;;;;;;;13.52;4.90;;;4.00;99.90;;;;;;5022630;28;20029;-83
2023/03/10 09:05:49;;;;;;;11.07;4.22;;;4.00;99.90;;;;;;5004826;28;20041;-84
2023/03/10 09:08:18;;;;;;;16.98;5.30;;;4.10;99.90;;;;;;5018192;28;20037;-84
2023/03/10 09:10:50;;;;;;;15.38;6.05;;;4.20;99.90;;;;;;5008702;28;20075;-83
2023/03/10 09:13:17;;;;;;;11.85;5.88;;;4.20;99.90;;;;;;5009582;28;20041;-85
2023/03/10 09:15:46;;;;;;;13.85;6.28;;;4.10;99.90;;;;;;5025472;28;20060;-84
2023/03/10 09:18:16;;;;;;;12.70;5.28;;;4.20;99.90;;;;;;5006270;28;20472;-84
2023/03/10 09:20:43;;;;;;;17.25;6.63;;;4.10;99.90;;;;;;5026740;28;20052;-84
2023/03/10 09:23:11;;;;;;;13.20;6.05;;;4.10;99.90;;;;;;5013512;28;20041;-84
2023/03/10 09:25:54;;;;;;;12.57;5.25;;;4.10;99.90;;;;;;5017007;28;20048;-85
2023/03/10 09:28:33;;;;;;;13.57;5.45;;;4.00;99.90;;;;;;5024487;28;20033;-85
2023/03/10 09:31:26;;;;;;;19.92;7.35;;;4.00;99.90;;;;;;5032194;28;20465;-86
2023/03/10 09:33:58;;;;;;;15.63;6.20;;;4.00;99.90;;;;;;5013648;28;20388;-86
2023/03/10 09:36:37;;;;;;;16.25;6.60;;;4.00;99.90;;;;;;5032327;28;20025;-87
2023/03/10 09:39:04;;;;;;;13.50;5.55;;;4.00;99.90;;;;;;4992591;28;20036;-87
2023/03/10 09:42:11;;;;;;;15.02;7.13;;;4.00;99.90;;;;;;5028201;28;20053;-89
2023/03/10 09:44:41;;;;;;;27.77;12.68;;;4.10;99.90;;;;;;5009199;28;20052;-85
2023/03/10 09:47:52;;;;;;;19.75;9.55;;;4.00;99.90;;;;;;5028062;28;20049;-85
2023/03/10 09:50:33;;;;;;;17.00;8.02;;;4.10;99.90;;;;;;5022577;28;20483;-84
2023/03/10 09:53:26;;;;;;;19.15;7.38;;;4.10;99.90;;;;;;5014391;28;20403;-89
2023/03/10 09:56:16;;;;;;;13.75;6.22;;;4.20;99.90;;;;;;4997242;28;20042;-88
2023/03/10 09:59:09;;;;;;;14.00;6.03;;;4.20;99.90;;;;;;5023212;28;20052;-90
2023/03/10 10:05:11;;;;;;;10.77;5.43;;;4.30;99.90;;;;;;5022282;28;20453;-87
2023/03/10 10:08:17;;;;;;;11.85;5.85;;;4.30;99.90;;;;;;5029806;28;20049;-88
2023/03/10 10:12:11;;;;;;;11.27;4.28;;;4.30;99.90;;;;;;5017602;28;20055;-89
2023/03/10 10:15:17;;;;;;;11.00;5.32;;;4.30;99.90;;;;;;5009811;28;20045;-90
2023/03/10 10:22:13;;;;;;;12.30;5.28;;;4.30;99.90;;;;;;5033005;28;20041;-89
2023/03/10 10:26:15;;;;;;;9.73;4.68;;;4.30;99.90;;;;;;5028104;28;20788;-89
2023/03/10 10:29:35;;;;;;;9.45;4.53;;;4.40;99.90;;;;;;4957928;28;21040;-88
2023/03/10 10:33:07;;;;;;;;;;;;;;;;;;;;;
2023/03/10 10:36:41;;;;;;;10.82;5.18;;;4.50;99.90;;;;;;5032790;28;20419;-88
2023/03/10 10:43:05;;;;;;;;;;;;;;;;;;;;;
2023/03/10 10:49:32;;;;;;;8.88;4.38;;;4.50;99.90;;;;;;5003724;28;20052;-87
2023/03/10 10:52:51;;;;;;;;;;;;;;;;;;;;;
2023/03/10 10:55:34;;;;;;;12.05;5.75;;;4.60;99.90;;;;;;5028523;28;20582;-90
2023/03/10 10:58:36;;;;;;;10.90;6.60;;;4.60;99.90;;;;;;5009113;28;20052;-86
2023/03/10 11:01:15;;;;;;;14.75;7.30;;;4.70;99.90;;;;;;5027685;28;20404;-90
2023/03/10 11:04:06;;;;;;;10.48;5.72;;;4.80;99.90;;;;;;5015274;28;20032;-89
2023/03/10 11:06:45;;;;;;;11.73;6.47;;;4.80;99.90;;;;;;5000749;28;20454;-85
2023/03/10 11:09:43;;;;;;;8.25;5.40;;;4.80;99.90;;;;;;5023539;28;20582;-88
2023/03/10 11:12:45;;;;;;;13.10;6.10;;;4.80;99.90;;;;;;4997369;28;20048;-86
2023/03/10 11:18:51;;;;;;;11.38;5.95;;;4.80;99.90;;;;;;5021937;28;20049;-86
2023/03/10 11:21:26;;;;;;;12.25;6.05;;;4.70;99.90;;;;;;4996202;28;20057;-85
2023/03/10 11:24:08;;;;;;;14.68;7.65;;;4.70;99.90;;;;;;5012702;28;20045;-87
2023/03/10 11:27:22;;;;;;;12.07;6.68;;;4.70;99.90;;;;;;5028419;28;20041;-84
2023/03/10 11:30:29;;;;;;;13.32;7.00;;;4.70;99.90;;;;;;5004170;28;20724;-86
2023/03/10 11:33:13;;;;;;;10.23;6.15;;;4.50;99.90;;;;;;5014675;28;20045;-87
2023/03/10 11:36:25;;;;;;;10.27;6.60;;;4.50;99.90;;;;;;5013741;28;20033;-90
2023/03/10 11:39:47;;;;;;;12.82;7.25;;;4.40;99.90;;;;;;5020259;28;20052;-86
2023/03/10 11:42:28;;;;;;;10.88;6.88;;;4.40;99.90;;;;;;5016888;28;20056;-90
2023/03/10 11:45:33;;;;;;;11.02;7.28;;;4.30;99.90;;;;;;5028970;28;20044;-88
2023/03/10 11:48:26;;;;;;;11.55;7.45;;;4.20;99.90;;;;;;5013458;28;20053;-88
2023/03/10 11:51:08;;;;;;;11.52;7.00;;;4.20;99.90;;;;;;5013724;28;21442;-87
2023/03/10 11:53:48;;;;;;;11.98;6.28;;;4.20;99.90;;;;;;5011252;28;20060;-86
2023/03/10 11:56:31;;;;;;;12.18;6.78;;;4.20;99.90;;;;;;5011661;28;20041;-89
2023/03/10 11:59:07;;;;;;;8.48;5.68;;;4.10;99.90;;;;;;5004489;28;20119;-87
2023/03/10 12:02:11;;;;;;;11.52;6.38;;;4.10;99.90;;;;;;5027762;28;20045;-87
2023/03/10 12:05:12;;;;;;;;;;;;;;;;;;;;;
2023/03/10 12:08:14;;;;;;;9.18;5.60;;;4.10;99.90;;;;;;5025837;28;20044;-87
2023/03/10 12:11:01;;;;;;;14.63;6.40;;;4.10;99.90;;;;;;5009880;28;20051;-86
2023/03/10 12:14:26;;;;;;;10.75;5.55;;;4.10;99.90;;;;;;5028302;28;20049;-91
2023/03/10 12:17:23;;;;;;;6.30;3.47;;;4.10;99.90;;;;;;5010136;28;20044;-91
2023/03/10 12:20:35;;;;;;;7.72;4.72;;;4.20;99.90;;;;;;5021292;28;20048;-91
2023/03/10 12:23:21;;;;;;;10.57;5.78;;;4.30;99.90;;;;;;5029720;28;20412;-84
2023/03/10 12:26:00;;;;;;;27.73;15.82;;;4.30;99.90;;;;;;5016593;28;20533;-80
2023/03/10 12:28:36;;;;;;;15.10;8.43;;;4.30;99.90;;;;;;5013211;28;20040;-85
2023/03/10 12:31:56;;;;;;;;;;;;;;;;;;;;;
2023/03/10 12:34:38;;;;;;;11.30;6.15;;;4.40;99.90;;;;;;5022749;28;20037;-86
2023/03/10 12:37:35;;;;;;;7.53;4.40;;;4.40;99.90;;;;;;5027263;28;20036;-85
2023/03/10 12:40:45;;;;;;;9.20;5.32;;;4.30;99.90;;;;;;5022182;28;20059;-87
2023/03/10 12:44:10;;;;;;;11.77;5.68;;;4.40;99.90;;;;;;5028174;28;20053;-86
2023/03/10 12:47:04;;;;;;;8.85;4.80;;;4.40;99.90;;;;;;4990012;28;20041;-85
2023/03/10 12:49:40;;;;;;;5.53;3.55;;;4.40;99.90;;;;;;4981879;28;20060;-86
2023/03/10 12:52:16;;;;;;;7.47;4.18;;;4.40;99.90;;;;;;5007135;28;20049;-87
2023/03/10 12:55:09;;;;;;;6.85;4.00;;;4.40;99.90;;;;;;5009337;28;20488;-87
2023/03/10 12:58:19;;;;;;;6.38;4.03;;;4.50;99.90;;;;;;4993433;28;20037;-82
2023/03/10 13:01:07;;;;;;;7.35;4.22;;;4.40;99.90;;;;;;5024063;28;20048;-85
2023/03/10 13:04:10;;;;;;;9.90;5.10;;;4.30;99.90;;;;;;5024626;28;21061;-85
2023/03/10 13:07:09;;;;;;;8.95;4.93;;;4.40;99.90;;;;;;5013329;28;20044;-87
2023/03/10 13:09:46;;;;;;;10.15;5.07;;;4.40;99.90;;;;;;5018905;28;20037;-87
2023/03/10 13:12:47;;;;;;;15.88;6.57;;;4.40;99.90;;;;;;5009500;28;20057;-87
2023/03/10 13:15:37;;;;;;;11.18;6.60;;;4.30;99.90;;;;;;5010970;28;20037;-84
2023/03/10 13:18:40;;;;;;;12.60;6.50;;;4.30;99.90;;;;;;5016692;28;20500;-84
2023/03/10 13:21:30;;;;;;;13.75;7.97;;;4.20;99.90;;;;;;5008983;28;20048;-89
2023/03/10 13:24:32;;;;;;;14.60;7.85;;;4.20;99.90;;;;;;5025756;28;20037;-85
2023/03/10 13:27:20;;;;;;;13.65;7.32;;;4.10;99.90;;;;;;5024916;28;20488;-88
2023/03/10 13:30:21;;;;;;;14.27;7.45;;;4.10;99.90;;;;;;4987072;28;21015;-87
2023/03/10 13:33:00;;;;;;;14.75;8.32;;;4.00;99.90;;;;;;5011143;28;20052;-86
2023/03/10 13:37:06;;;;;;;19.75;10.38;;;4.10;99.90;;;;;;4990570;28;20037;-85
2023/03/10 13:43:39;;;;;;;12.02;6.78;;;4.00;99.90;;;;;;4948205;28;20042;-87
2023/03/10 13:46:49;;;;;;;10.40;5.57;;;4.00;99.90;;;;;;4937007;28;20846;-86
2023/03/10 13:52:33;;;;;;;10.93;6.53;;;3.90;99.90;;;;;;5025698;28;20048;-86
2023/03/10 13:55:13;;;;;;;10.77;6.80;;;3.80;99.90;;;;;;5009475;28;20045;-87
2023/03/10 13:57:53;;;;;;;11.85;7.10;;;3.80;99.90;;;;;;5023798;28;20080;-84
2023/03/10 14:00:27;;;;;;;11.68;6.65;;;3.80;99.90;;;;;;5019665;28;20068;-84
2023/03/10 14:03:11;;;;;;;10.80;6.80;;;3.80;99.90;;;;;;5023918;28;20056;-83
2023/03/10 14:05:44;;;;;;;10.93;6.93;;;3.70;99.90;;;;;;5026840;28;20445;-83
2023/03/10 14:08:29;;;;;;;12.03;6.97;;;3.60;99.90;;;;;;5021178;28;20048;-84
2023/03/10 14:11:21;;;;;;;8.73;5.00;;;3.60;99.90;;;;;;5027790;28;20040;-84
2023/03/10 14:13:50;;;;;;;10.87;5.83;;;3.50;99.90;;;;;;5026375;28;20040;-83
2023/03/10 14:16:16;;;;;;;9.37;5.67;;;3.50;99.90;;;;;;5026174;28;20049;-83
2023/03/10 14:18:46;;;;;;;11.23;6.25;;;3.40;99.90;;;;;;5017415;28;20072;-83
2023/03/10 14:21:31;;;;;;;10.03;5.60;;;3.40;99.90;;;;;;5028585;28;20064;-83
2023/03/10 14:24:10;;;;;;;11.23;6.40;;;3.50;99.90;;;;;;5028061;28;22805;-83
2023/03/10 14:26:48;;;;;;;10.63;6.97;;;3.50;99.90;;;;;;5026075;28;20052;-84
2023/03/10 14:29:17;;;;;;;10.87;6.17;;;3.50;99.90;;;;;;5018630;28;20041;-84
2023/03/10 14:31:52;;;;;;;10.90;6.88;;;3.50;99.90;;;;;;5027694;28;20041;-83
2023/03/10 14:34:23;;;;;;;10.55;6.45;;;3.40;99.90;;;;;;5029214;28;20586;-84
2023/03/10 14:36:50;;;;;;;10.27;5.95;;;3.40;99.90;;;;;;5011647;28;20049;-84
2023/03/10 14:39:19;;;;;;;10.25;5.97;;;3.40;99.90;;;;;;5001501;28;20387;-84
2023/03/10 14:41:47;;;;;;;11.38;6.32;;;3.40;99.90;;;;;;5028080;28;20249;-85
2023/03/10 14:44:16;;;;;;;11.48;5.63;;;3.40;99.90;;;;;;5026572;28;20382;-84
2023/03/10 14:46:56;;;;;;;8.77;6.10;;;3.30;99.90;;;;;;5012081;28;20052;-86
2023/03/10 14:49:28;;;;;;;11.00;5.65;;;3.20;99.90;;;;;;5021101;28;20048;-84
2023/03/10 14:51:59;;;;;;;9.27;5.33;;;3.10;99.90;;;;;;5027659;28;20055;-83
2023/03/10 14:54:31;;;;;;;11.02;6.30;;;3.00;99.90;;;;;;5028983;28;20033;-84
2023/03/10 14:57:02;;;;;;;11.15;5.85;;;2.90;99.90;;;;;;5026870;28;20025;-84
2023/03/10 14:59:29;;;;;;;10.83;5.63;;;2.90;99.90;;;;;;5017476;28;20045;-87
2023/03/10 15:02:03;;;;;;;8.77;5.73;;;2.70;99.90;;;;;;5010056;28;20041;-82
2023/03/10 15:04:39;;;;;;;12.37;5.80;;;2.60;99.90;;;;;;5010564;28;20045;-84
2023/03/10 15:07:14;;;;;;;11.27;6.37;;;2.40;99.90;;;;;;5025848;28;20045;-84
2023/03/10 15:09:44;;;;;;;8.07;5.50;;;2.30;99.90;;;;;;5017917;28;20885;-86
2023/03/10 15:12:16;;;;;;;9.00;5.53;;;2.10;99.90;;;;;;5015596;28;20495;-84
2023/03/10 15:14:51;;;;;;;10.57;6.13;;;2.00;99.90;;;;;;5027603;28;20048;-84
2023/03/10 15:17:18;;;;;;;9.67;5.63;;;1.80;99.90;;;;;;5027415;28;20055;-86
2023/03/10 15:19:44;;;;;;;10.60;6.10;;;1.70;99.90;;;;;;5018276;28;20053;-89
2023/03/10 15:22:11;;;;;;;12.20;6.23;;;1.60;99.90;;;;;;5028161;28;20053;-88
2023/03/10 15:24:37;;;;;;;12.97;6.27;;;1.50;99.90;;;;;;5029901;28;20048;-90
2023/03/10 15:27:03;;;;;;;12.73;6.70;;;1.50;99.90;;;;;;5029733;28;20056;-84
2023/03/10 15:29:30;;;;;;;16.23;7.83;;;1.50;99.90;;;;;;5022108;28;20440;-83
2023/03/10 15:32:00;;;;;;;13.73;7.47;;;1.40;99.90;;;;;;5029529;28;20723;-81